createdAt,value
2022-09-26T00:00:08.126Z,11.40
2022-09-26T00:01:08.202Z,11.46
2022-09-26T00:02:08.145Z,11.42
2022-09-26T00:03:08.108Z,11.43
2022-09-26T00:04:08.089Z,11.40
2022-09-26T00:05:08.072Z,11.33
2022-09-26T00:06:08.072Z,11.33
2022-09-26T00:07:08.069Z,11.43
2022-09-26T00:08:08.052Z,11.42
2022-09-26T00:09:08.048Z,11.42
2022-09-26T00:10:08.026Z,11.40
2022-09-26T00:11:08.069Z,11.42
2022-09-26T00:12:08.018Z,11.42
2022-09-26T00:13:07.999Z,11.40
2022-09-26T00:14:08.008Z,11.49
2022-09-26T00:15:07.993Z,11.44
2022-09-26T00:16:07.948Z,11.40
2022-09-26T00:17:07.997Z,11.54
2022-09-26T00:18:07.924Z,11.51
2022-09-26T00:19:08.059Z,11.49
2022-09-26T00:20:07.941Z,11.52
2022-09-26T00:21:07.896Z,11.46
2022-09-26T00:22:07.880Z,11.43
2022-09-26T00:23:07.869Z,11.51
2022-09-26T00:24:07.902Z,11.44
2022-09-26T00:25:07.881Z,11.49
2022-09-26T00:26:07.870Z,11.47
2022-09-26T00:27:07.821Z,11.49
2022-09-26T00:28:07.812Z,11.42
2022-09-26T00:29:07.821Z,11.54
2022-09-26T00:30:07.819Z,11.54
2022-09-26T00:31:07.950Z,11.55
2022-09-26T00:32:07.802Z,11.58
2022-09-26T00:33:07.781Z,11.49
2022-09-26T00:34:07.751Z,11.60
2022-09-26T00:35:07.764Z,11.62
2022-09-26T00:36:07.749Z,11.57
2022-09-26T00:37:07.734Z,11.64
2022-09-26T00:38:07.745Z,11.64
2022-09-26T00:39:07.695Z,11.61
2022-09-26T00:40:07.685Z,11.62
2022-09-26T00:41:07.700Z,11.58
2022-09-26T00:42:07.687Z,11.55
2022-09-26T00:43:07.664Z,11.69
2022-09-26T00:44:07.678Z,11.72
2022-09-26T00:45:07.622Z,11.67
2022-09-26T00:46:07.699Z,11.62
2022-09-26T00:47:07.609Z,11.64
2022-09-26T00:48:07.621Z,11.62
2022-09-26T00:49:07.611Z,11.62
2022-09-26T00:50:07.588Z,11.70
2022-09-26T00:51:07.556Z,11.64
2022-09-26T00:52:07.572Z,11.67
2022-09-26T00:53:07.546Z,11.64
2022-09-26T00:54:07.560Z,11.75
2022-09-26T00:55:07.553Z,11.76
2022-09-26T00:56:07.502Z,11.65
2022-09-26T00:57:07.502Z,11.78
2022-09-26T00:58:07.487Z,11.69
2022-09-26T00:59:07.508Z,11.70
2022-09-26T01:00:07.497Z,11.72
2022-09-26T01:01:07.595Z,11.70
2022-09-26T01:02:07.577Z,11.69
2022-09-26T01:03:07.434Z,11.67
2022-09-26T01:04:07.443Z,11.70
2022-09-26T01:05:07.411Z,11.70
2022-09-26T01:06:07.439Z,11.69
2022-09-26T01:07:07.382Z,11.64
2022-09-26T01:08:07.370Z,11.79
2022-09-26T01:09:07.387Z,11.61
2022-09-26T01:10:07.354Z,11.62
2022-09-26T01:11:07.362Z,11.69
2022-09-26T01:12:07.366Z,11.69
2022-09-26T01:13:07.313Z,11.75
2022-09-26T01:14:07.305Z,11.78
2022-09-26T01:15:07.292Z,11.70
2022-09-26T01:16:07.494Z,11.73
2022-09-26T01:17:07.381Z,11.69
2022-09-26T01:18:07.310Z,11.67
2022-09-26T01:19:07.279Z,11.73
2022-09-26T01:20:07.245Z,11.65
2022-09-26T01:21:07.228Z,11.72
2022-09-26T01:22:07.229Z,11.62
2022-09-26T01:23:07.229Z,11.70
2022-09-26T01:24:07.255Z,11.69
2022-09-26T01:25:07.184Z,11.64
2022-09-26T01:26:07.186Z,11.75
2022-09-26T01:27:07.197Z,11.73
2022-09-26T01:28:07.993Z,11.75
2022-09-26T01:29:07.169Z,11.64
2022-09-26T01:30:07.127Z,11.67
2022-09-26T01:31:07.204Z,11.73
2022-09-26T01:32:07.131Z,11.65
2022-09-26T01:33:07.109Z,11.70
2022-09-26T01:34:07.129Z,11.73
2022-09-26T01:35:07.082Z,11.70
2022-09-26T01:36:07.063Z,11.67
2022-09-26T01:37:07.063Z,11.69
2022-09-26T01:38:07.046Z,11.65
2022-09-26T01:39:07.030Z,11.75
2022-09-26T01:40:07.038Z,11.72
2022-09-26T01:41:07.044Z,11.67
2022-09-26T01:42:06.993Z,11.64
2022-09-26T01:43:06.998Z,11.69
2022-09-26T01:44:06.989Z,11.69
2022-09-26T01:45:06.977Z,11.62
2022-09-26T01:46:07.134Z,11.70
2022-09-26T01:47:06.935Z,11.64
2022-09-26T01:48:06.926Z,11.69
2022-09-26T01:49:06.929Z,11.54
2022-09-26T01:50:07.953Z,11.69
2022-09-26T01:51:06.931Z,11.64
2022-09-26T01:52:06.915Z,11.58
2022-09-26T01:53:06.869Z,11.61
2022-09-26T01:54:06.870Z,11.62
2022-09-26T01:55:06.851Z,11.61
2022-09-26T01:56:06.888Z,11.57
2022-09-26T01:57:06.850Z,11.61
2022-09-26T01:58:06.867Z,11.64
2022-09-26T01:59:06.825Z,11.57
2022-09-26T02:00:06.807Z,11.65
2022-09-26T02:01:06.857Z,11.54
2022-09-26T02:02:06.914Z,11.62
2022-09-26T02:03:06.801Z,11.51
2022-09-26T02:04:06.749Z,11.52
2022-09-26T02:05:06.736Z,11.54
2022-09-26T02:06:14.751Z,11.60
2022-09-26T02:07:06.724Z,11.58
2022-09-26T02:08:06.731Z,11.61
2022-09-26T02:09:06.738Z,11.61
2022-09-26T02:10:06.682Z,11.58
2022-09-26T02:11:06.674Z,11.65
2022-09-26T02:12:06.666Z,11.62
2022-09-26T02:13:06.668Z,11.64
2022-09-26T02:14:06.664Z,11.61
2022-09-26T02:15:06.672Z,11.62
2022-09-26T02:16:06.723Z,11.55
2022-09-26T02:17:06.625Z,11.55
2022-09-26T02:18:06.597Z,11.60
2022-09-26T02:19:06.647Z,11.62
2022-09-26T02:20:06.616Z,11.65
2022-09-26T02:21:06.559Z,11.60
2022-09-26T02:22:06.644Z,11.65
2022-09-26T02:23:06.553Z,11.65
2022-09-26T02:24:06.536Z,11.58
2022-09-26T02:25:06.546Z,11.61
2022-09-26T02:26:06.538Z,11.65
2022-09-26T02:27:06.506Z,11.67
2022-09-26T02:28:06.520Z,11.62
2022-09-26T02:29:06.482Z,11.69
2022-09-26T02:30:06.479Z,11.62
2022-09-26T02:31:06.483Z,11.62
2022-09-26T02:32:06.503Z,11.69
2022-09-26T02:33:06.427Z,11.69
2022-09-26T02:34:06.448Z,11.72
2022-09-26T02:35:06.442Z,11.70
2022-09-26T02:36:06.413Z,11.78
2022-09-26T02:37:06.420Z,11.65
2022-09-26T02:38:06.420Z,11.65
2022-09-26T02:39:06.474Z,11.73
2022-09-26T02:40:06.576Z,11.70
2022-09-26T02:41:06.349Z,11.79
2022-09-26T02:42:06.343Z,11.72
2022-09-26T02:43:06.351Z,11.75
2022-09-26T02:44:06.362Z,11.80
2022-09-26T02:45:06.308Z,11.72
2022-09-26T02:46:06.325Z,11.73
2022-09-26T02:47:06.287Z,11.72
2022-09-26T02:48:06.291Z,11.80
2022-09-26T02:49:06.398Z,11.69
2022-09-26T02:50:06.246Z,11.65
2022-09-26T02:51:06.231Z,11.73
2022-09-26T02:52:06.240Z,11.70
2022-09-26T02:53:06.226Z,11.75
2022-09-26T02:54:06.332Z,11.70
2022-09-26T02:55:06.204Z,11.70
2022-09-26T02:56:06.183Z,11.73
2022-09-26T02:57:06.179Z,11.76
2022-09-26T02:58:06.163Z,11.76
2022-09-26T02:59:06.208Z,11.73
2022-09-26T03:00:06.170Z,11.72
2022-09-26T03:01:06.207Z,11.73
2022-09-26T03:02:06.107Z,11.72
2022-09-26T03:03:06.118Z,11.70
2022-09-26T03:04:06.096Z,11.73
2022-09-26T03:05:06.248Z,11.76
2022-09-26T03:06:06.098Z,11.79
2022-09-26T03:07:06.111Z,11.73
2022-09-26T03:08:06.047Z,11.69
2022-09-26T03:09:06.058Z,11.72
2022-09-26T03:10:06.051Z,11.70
2022-09-26T03:11:06.042Z,11.70
2022-09-26T03:12:06.045Z,11.72
2022-09-26T03:13:05.990Z,11.75
2022-09-26T03:14:05.992Z,11.73
2022-09-26T03:15:05.973Z,11.70
2022-09-26T03:16:06.048Z,11.75
2022-09-26T03:17:05.987Z,11.79
2022-09-26T03:18:05.930Z,11.72
2022-09-26T03:19:06.049Z,11.80
2022-09-26T03:20:05.929Z,11.75
2022-09-26T03:21:05.927Z,11.73
2022-09-26T03:22:05.911Z,11.70
2022-09-26T03:23:05.882Z,11.73
2022-09-26T03:24:05.865Z,11.75
2022-09-26T03:25:05.859Z,11.76
2022-09-26T03:26:05.865Z,11.75
2022-09-26T03:27:05.874Z,11.73
2022-09-26T03:28:05.853Z,11.72
2022-09-26T03:29:05.924Z,11.76
2022-09-26T03:30:05.808Z,11.70
2022-09-26T03:31:05.815Z,11.64
2022-09-26T03:32:05.917Z,11.61
2022-09-26T03:33:05.785Z,11.72
2022-09-26T03:34:05.812Z,11.62
2022-09-26T03:35:05.740Z,11.64
2022-09-26T03:36:05.731Z,11.65
2022-09-26T03:37:05.745Z,11.65
2022-09-26T03:38:05.750Z,11.70
2022-09-26T03:39:05.785Z,11.72
2022-09-26T03:40:05.722Z,11.73
2022-09-26T03:41:05.680Z,11.69
2022-09-26T03:42:05.700Z,11.69
2022-09-26T03:43:05.791Z,11.70
2022-09-26T03:44:05.653Z,11.72
2022-09-26T03:45:05.666Z,11.72
2022-09-26T03:46:05.719Z,11.73
2022-09-26T03:47:05.663Z,11.72
2022-09-26T03:48:05.649Z,11.70
2022-09-26T03:49:05.707Z,11.65
2022-09-26T03:50:05.594Z,11.70
2022-09-26T03:51:05.596Z,11.70
2022-09-26T03:52:05.599Z,11.70
2022-09-26T03:53:05.544Z,11.78
2022-09-26T03:54:05.565Z,11.78
2022-09-26T03:55:05.524Z,11.72
2022-09-26T03:56:05.531Z,11.67
2022-09-26T03:57:05.528Z,11.69
2022-09-26T03:58:05.539Z,11.72
2022-09-26T03:59:05.613Z,11.69
2022-09-26T04:00:05.482Z,11.75
2022-09-26T04:01:05.553Z,11.72
2022-09-26T04:02:05.512Z,11.65
2022-09-26T04:03:05.465Z,11.72
2022-09-26T04:04:05.428Z,11.78
2022-09-26T04:05:05.416Z,11.70
2022-09-26T04:06:05.421Z,11.70
2022-09-26T04:07:05.403Z,11.73
2022-09-26T04:08:05.409Z,11.76
2022-09-26T04:09:05.528Z,11.62
2022-09-26T04:10:05.351Z,11.76
2022-09-26T04:11:05.348Z,11.78
2022-09-26T04:12:05.335Z,11.70
2022-09-26T04:13:05.349Z,11.65
2022-09-26T04:14:05.370Z,11.69
2022-09-26T04:15:05.346Z,11.67
2022-09-26T04:16:05.356Z,11.64
2022-09-26T04:17:05.293Z,11.62
2022-09-26T04:18:05.273Z,11.65
2022-09-26T04:19:05.286Z,11.54
2022-09-26T04:20:05.255Z,11.52
2022-09-26T04:21:09.734Z,11.62
2022-09-26T04:22:05.221Z,11.51
2022-09-26T04:23:05.209Z,11.47
2022-09-26T04:24:05.247Z,11.43
2022-09-26T04:25:05.228Z,11.40
2022-09-26T04:26:05.230Z,11.42
2022-09-26T04:27:05.166Z,11.32
2022-09-26T04:28:05.172Z,11.37
2022-09-26T04:29:05.157Z,11.37
2022-09-26T04:30:05.175Z,11.33
2022-09-26T04:31:05.225Z,11.33
2022-09-26T04:32:05.220Z,11.28
2022-09-26T04:33:05.114Z,11.28
2022-09-26T04:34:05.114Z,11.36
2022-09-26T04:35:05.110Z,11.33
2022-09-26T04:36:05.078Z,11.33
2022-09-26T04:37:05.097Z,11.36
2022-09-26T04:38:05.048Z,11.37
2022-09-26T04:39:05.031Z,11.33
2022-09-26T04:40:05.019Z,11.39
2022-09-26T04:41:05.087Z,11.37
2022-09-26T04:42:05.032Z,11.37
2022-09-26T04:43:05.013Z,11.43
2022-09-26T04:44:04.974Z,11.25
2022-09-26T04:45:05.040Z,11.36
2022-09-26T04:46:05.080Z,11.37
2022-09-26T04:47:04.964Z,11.37
2022-09-26T04:48:04.968Z,11.33
2022-09-26T04:49:04.921Z,11.33
2022-09-26T04:50:04.907Z,11.39
2022-09-26T04:51:04.920Z,11.39
2022-09-26T04:52:04.925Z,11.36
2022-09-26T04:53:04.903Z,11.35
2022-09-26T04:54:04.908Z,11.37
2022-09-26T04:55:04.855Z,11.37
2022-09-26T04:56:04.841Z,11.29
2022-09-26T04:57:04.838Z,11.28
2022-09-26T04:58:04.833Z,11.29
2022-09-26T04:59:04.847Z,11.29
2022-09-26T05:00:04.808Z,11.27
2022-09-26T05:01:04.890Z,11.28
2022-09-26T05:02:04.862Z,11.33
2022-09-26T05:03:04.805Z,11.36
2022-09-26T05:04:04.772Z,11.29
2022-09-26T05:05:04.778Z,11.33
2022-09-26T05:06:04.750Z,11.40
2022-09-26T05:07:04.722Z,11.43
2022-09-26T05:08:04.721Z,11.32
2022-09-26T05:09:04.712Z,11.32
2022-09-26T05:10:04.697Z,11.25
2022-09-26T05:11:04.706Z,11.22
2022-09-26T05:12:04.665Z,11.21
2022-09-26T05:13:04.655Z,11.15
2022-09-26T05:14:04.661Z,11.22
2022-09-26T05:15:04.650Z,11.27
2022-09-26T05:16:04.675Z,11.21
2022-09-26T05:17:04.675Z,11.19
2022-09-26T05:18:04.632Z,11.24
2022-09-26T05:19:04.591Z,11.24
2022-09-26T05:20:04.600Z,11.18
2022-09-26T05:21:04.591Z,11.25
2022-09-26T05:22:04.592Z,11.22
2022-09-26T05:23:04.562Z,11.22
2022-09-26T05:24:04.531Z,11.25
2022-09-26T05:25:04.530Z,11.21
2022-09-26T05:26:04.519Z,11.21
2022-09-26T05:27:04.563Z,11.22
2022-09-26T05:28:04.491Z,11.21
2022-09-26T05:29:08.348Z,11.19
2022-09-26T05:30:04.470Z,11.22
2022-09-26T05:31:04.541Z,11.25
2022-09-26T05:32:04.581Z,11.11
2022-09-26T05:33:04.461Z,11.19
2022-09-26T05:34:04.465Z,11.29
2022-09-26T05:35:04.458Z,11.25
2022-09-26T05:36:04.410Z,11.18
2022-09-26T05:37:04.410Z,11.17
2022-09-26T05:38:04.409Z,11.22
2022-09-26T05:39:04.399Z,11.28
2022-09-26T05:40:04.406Z,11.24
2022-09-26T05:41:04.472Z,11.25
2022-09-26T05:42:04.612Z,11.29
2022-09-26T05:43:04.336Z,11.22
2022-09-26T05:44:04.332Z,11.29
2022-09-26T05:45:04.334Z,11.28
2022-09-26T05:46:04.287Z,11.33
2022-09-26T05:47:04.402Z,11.33
2022-09-26T05:48:04.282Z,11.42
2022-09-26T05:49:04.266Z,11.28
2022-09-26T05:50:04.292Z,11.39
2022-09-26T05:51:04.274Z,11.40
2022-09-26T05:52:04.230Z,11.43
2022-09-26T05:53:04.223Z,11.39
2022-09-26T05:54:04.199Z,11.36
2022-09-26T05:55:04.206Z,11.29
2022-09-26T05:56:04.196Z,11.27
2022-09-26T05:57:04.183Z,11.18
2022-09-26T05:58:04.257Z,11.17
2022-09-26T05:59:04.152Z,11.17
2022-09-26T06:00:04.139Z,11.24
2022-09-26T06:01:04.217Z,11.24
2022-09-26T06:02:04.191Z,11.28
2022-09-26T06:03:04.113Z,11.27
2022-09-26T06:04:04.096Z,11.28
2022-09-26T06:05:04.082Z,11.25
2022-09-26T06:06:04.088Z,11.19
2022-09-26T06:07:04.090Z,11.14
2022-09-26T06:08:04.080Z,11.10
2022-09-26T06:09:04.084Z,11.17
2022-09-26T06:10:04.033Z,11.04
2022-09-26T06:11:04.014Z,11.14
2022-09-26T06:12:04.031Z,11.09
2022-09-26T06:13:04.014Z,11.09
2022-09-26T06:14:03.995Z,11.02
2022-09-26T06:15:03.977Z,11.00
2022-09-26T06:16:04.118Z,10.99
2022-09-26T06:17:03.976Z,10.88
2022-09-26T06:18:03.954Z,10.86
2022-09-26T06:19:03.960Z,10.89
2022-09-26T06:20:03.914Z,10.81
2022-09-26T06:21:03.911Z,10.85
2022-09-26T06:22:03.913Z,10.86
2022-09-26T06:23:03.897Z,10.85
2022-09-26T06:24:03.911Z,10.81
2022-09-26T06:25:03.889Z,10.81
2022-09-26T06:26:03.852Z,10.79
2022-09-26T06:27:03.837Z,10.84
2022-09-26T06:28:03.841Z,10.81
2022-09-26T06:29:03.830Z,10.81
2022-09-26T06:30:03.829Z,10.78
2022-09-26T06:31:03.820Z,10.78
2022-09-26T06:32:03.858Z,10.67
2022-09-26T06:33:03.774Z,10.71
2022-09-26T06:34:03.761Z,10.78
2022-09-26T06:35:03.798Z,10.82
2022-09-26T06:36:03.784Z,10.78
2022-09-26T06:37:03.763Z,10.79
2022-09-26T06:38:03.733Z,10.67
2022-09-26T06:39:03.712Z,10.81
2022-09-26T06:40:03.712Z,10.74
2022-09-26T06:41:03.806Z,10.71
2022-09-26T06:42:03.706Z,10.81
2022-09-26T06:43:03.669Z,10.84
2022-09-26T06:44:03.648Z,10.79
2022-09-26T06:45:03.638Z,10.85
2022-09-26T06:46:03.632Z,10.73
2022-09-26T06:47:03.765Z,10.91
2022-09-26T06:48:03.610Z,10.86
2022-09-26T06:49:03.600Z,10.85
2022-09-26T06:50:03.596Z,11.00
2022-09-26T06:51:03.590Z,11.00
2022-09-26T06:52:03.593Z,11.06
2022-09-26T06:53:15.180Z,11.04
2022-09-26T06:54:04.554Z,11.11
2022-09-26T06:55:03.533Z,11.09
2022-09-26T06:56:03.525Z,11.17
2022-09-26T06:57:03.539Z,11.27
2022-09-26T06:58:03.510Z,11.25
2022-09-26T06:59:03.508Z,11.32
2022-09-26T07:00:03.481Z,11.37
2022-09-26T07:01:03.561Z,11.36
2022-09-26T07:02:03.618Z,11.36
2022-09-26T07:03:03.461Z,11.37
2022-09-26T07:04:03.443Z,11.43
2022-09-26T07:05:03.450Z,11.44
2022-09-26T07:06:03.405Z,11.42
2022-09-26T07:07:03.438Z,11.49
2022-09-26T07:08:03.397Z,11.47
2022-09-26T07:09:12.752Z,11.44
2022-09-26T07:10:04.377Z,11.55
2022-09-26T07:11:30.438Z,11.58
2022-09-26T07:12:17.696Z,11.61
2022-09-26T07:13:04.348Z,11.60
2022-09-26T07:14:03.322Z,11.60
2022-09-26T07:15:03.328Z,11.58
2022-09-26T07:16:03.415Z,11.62
2022-09-26T07:17:03.340Z,11.64
2022-09-26T07:18:03.276Z,11.76
2022-09-26T07:19:03.340Z,11.67
2022-09-26T07:20:03.291Z,11.70
2022-09-26T07:21:03.266Z,11.76
2022-09-26T07:22:03.268Z,11.75
2022-09-26T07:23:03.215Z,11.86
2022-09-26T07:24:03.213Z,11.80
2022-09-26T07:25:03.211Z,11.86
2022-09-26T07:26:03.231Z,11.90
2022-09-26T07:27:03.195Z,11.94
2022-09-26T07:28:03.199Z,11.94
2022-09-26T07:29:03.150Z,12.02
2022-09-26T07:30:03.140Z,12.05
2022-09-26T07:31:03.300Z,12.05
2022-09-26T07:32:03.175Z,12.09
2022-09-26T07:33:03.187Z,12.19
2022-09-26T07:34:03.093Z,12.17
2022-09-26T07:35:03.083Z,12.17
2022-09-26T07:36:05.180Z,12.20
2022-09-26T07:37:03.064Z,12.21
2022-09-26T07:38:03.064Z,12.12
2022-09-26T07:39:03.088Z,12.04
2022-09-26T07:40:03.026Z,12.19
2022-09-26T07:41:03.101Z,12.17
2022-09-26T07:42:03.042Z,12.09
2022-09-26T07:43:19.546Z,12.12
2022-09-26T07:44:53.328Z,12.20
2022-09-26T07:46:03.977Z,12.14
2022-09-26T07:47:03.075Z,12.12
2022-09-26T07:48:02.962Z,12.20
2022-09-26T07:49:02.950Z,12.13
2022-09-26T07:50:02.952Z,12.17
2022-09-26T07:51:08.403Z,12.09
2022-09-26T07:52:03.919Z,12.01
2022-09-26T07:53:02.893Z,11.99
2022-09-26T07:54:02.876Z,12.05
2022-09-26T07:55:02.887Z,11.91
2022-09-26T07:56:02.885Z,11.98
2022-09-26T07:57:02.884Z,12.01
2022-09-26T07:58:02.867Z,11.99
2022-09-26T07:59:02.837Z,11.98
2022-09-26T08:00:02.850Z,12.01
2022-09-26T08:01:02.811Z,12.09
2022-09-26T08:02:02.963Z,12.07
2022-09-26T08:03:02.859Z,12.09
2022-09-26T08:04:02.761Z,12.07
2022-09-26T08:05:02.748Z,12.02
2022-09-26T08:06:02.756Z,12.17
2022-09-26T08:07:02.753Z,12.20
2022-09-26T08:08:02.715Z,12.20
2022-09-26T08:09:02.708Z,12.21
2022-09-26T08:10:02.695Z,12.29
2022-09-26T08:11:04.163Z,12.39
2022-09-26T08:12:02.696Z,12.41
2022-09-26T08:13:02.661Z,12.56
2022-09-26T08:14:02.667Z,12.56
2022-09-26T08:15:02.636Z,12.53
2022-09-26T08:16:02.710Z,12.70
2022-09-26T08:17:02.629Z,12.82
2022-09-26T08:18:02.657Z,12.79
2022-09-26T08:19:02.604Z,12.89
2022-09-26T08:20:02.587Z,12.96
2022-09-26T08:21:02.585Z,13.12
2022-09-26T08:22:02.560Z,13.10
2022-09-26T08:23:02.568Z,13.14
2022-09-26T08:24:02.575Z,13.19
2022-09-26T08:25:02.527Z,13.17
2022-09-26T08:26:02.523Z,13.15
2022-09-26T08:27:02.502Z,13.14
2022-09-26T08:28:02.498Z,13.20
2022-09-26T08:29:02.498Z,13.20
2022-09-26T08:30:02.552Z,13.08
2022-09-26T08:31:02.517Z,13.05
2022-09-26T08:32:02.451Z,13.12
2022-09-26T08:33:02.469Z,13.11
2022-09-26T08:34:02.461Z,13.05
2022-09-26T08:35:02.459Z,13.10
2022-09-26T08:36:02.458Z,13.14
2022-09-26T08:37:02.392Z,13.04
2022-09-26T08:38:02.420Z,13.14
2022-09-26T08:39:02.372Z,13.17
2022-09-26T08:40:02.369Z,13.28
2022-09-26T08:41:02.490Z,13.38
2022-09-26T08:42:02.351Z,13.38
2022-09-26T08:43:02.326Z,13.36
2022-09-26T08:44:02.338Z,13.42
2022-09-26T08:45:02.323Z,13.42
2022-09-26T08:46:02.441Z,13.36
2022-09-26T08:47:02.508Z,13.32
2022-09-26T08:48:02.275Z,13.30
2022-09-26T08:49:02.272Z,13.32
2022-09-26T08:50:02.281Z,13.26
2022-09-26T08:51:02.258Z,13.23
2022-09-26T08:52:02.246Z,13.25
2022-09-26T08:53:02.240Z,13.29
2022-09-26T08:54:02.265Z,13.29
2022-09-26T08:55:02.194Z,13.25
2022-09-26T08:56:02.180Z,13.36
2022-09-26T08:57:02.176Z,13.26
2022-09-26T08:58:02.198Z,13.39
2022-09-26T08:59:02.154Z,13.42
2022-09-26T09:00:02.138Z,13.49
2022-09-26T09:01:02.146Z,13.49
2022-09-26T09:02:02.270Z,13.62
2022-09-26T09:03:02.277Z,13.62
2022-09-26T09:04:02.122Z,13.60
2022-09-26T09:05:02.077Z,13.57
2022-09-26T09:06:02.188Z,13.59
2022-09-26T09:07:02.061Z,13.52
2022-09-26T09:08:02.059Z,13.52
2022-09-26T09:09:02.056Z,13.57
2022-09-26T09:10:02.051Z,13.55
2022-09-26T09:11:02.019Z,13.55
2022-09-26T09:12:02.017Z,13.52
2022-09-26T09:13:02.005Z,13.54
2022-09-26T09:14:01.994Z,13.55
2022-09-26T09:15:24.018Z,13.52
2022-09-26T09:16:03.101Z,13.48
2022-09-26T09:17:01.972Z,13.52
2022-09-26T09:18:01.974Z,13.63
2022-09-26T09:19:01.931Z,13.62
2022-09-26T09:20:01.945Z,13.60
2022-09-26T09:21:01.896Z,13.62
2022-09-26T09:22:01.918Z,13.78
2022-09-26T09:23:01.883Z,13.75
2022-09-26T09:24:01.887Z,13.73
2022-09-26T09:25:01.893Z,13.82
2022-09-26T09:28:07.925Z,14.15
2022-09-26T09:29:02.822Z,14.18
2022-09-26T09:30:03.213Z,14.17
2022-09-26T09:31:01.897Z,14.27
2022-09-26T09:32:01.807Z,14.36
2022-09-26T09:33:01.761Z,14.40
2022-09-26T09:34:01.797Z,14.39
2022-09-26T09:35:01.770Z,14.43
2022-09-26T09:36:01.755Z,14.39
2022-09-26T09:37:01.738Z,14.45
2022-09-26T09:38:01.704Z,14.32
2022-09-26T09:39:01.696Z,14.25
2022-09-26T09:40:01.694Z,14.22
2022-09-26T09:41:01.870Z,14.15
2022-09-26T09:42:01.667Z,14.07
2022-09-26T09:43:01.678Z,14.07
2022-09-26T09:44:01.635Z,14.09
2022-09-26T09:45:01.621Z,14.07
2022-09-26T09:46:01.693Z,13.91
2022-09-26T09:47:01.689Z,13.95
2022-09-26T09:48:01.608Z,13.89
2022-09-26T09:49:01.584Z,13.88
2022-09-26T09:50:01.625Z,13.88
2022-09-26T09:51:01.579Z,13.85
2022-09-26T09:52:01.545Z,13.62
2022-09-26T09:53:01.558Z,13.57
2022-09-26T09:54:01.525Z,13.55
2022-09-26T09:55:01.531Z,13.51
2022-09-26T09:56:01.499Z,13.57
2022-09-26T09:57:01.501Z,13.55
2022-09-26T09:58:01.485Z,13.48
2022-09-26T09:59:01.515Z,13.57
2022-09-26T10:00:02.348Z,13.48
2022-09-26T10:01:01.441Z,13.48
2022-09-26T10:02:01.477Z,13.41
2022-09-26T10:03:01.621Z,13.41
2022-09-26T10:04:01.425Z,13.49
2022-09-26T10:05:01.454Z,13.30
2022-09-26T10:06:01.431Z,13.52
2022-09-26T10:07:01.373Z,13.52
2022-09-26T10:08:01.378Z,13.55
2022-09-26T10:09:39.006Z,13.45
2022-09-26T10:10:02.353Z,13.49
2022-09-26T10:11:01.361Z,13.60
2022-09-26T10:12:01.330Z,13.67
2022-09-26T10:13:01.345Z,13.85
2022-09-26T10:14:01.321Z,13.89
2022-09-26T10:15:01.303Z,14.09
2022-09-26T10:16:01.385Z,14.12
2022-09-26T10:17:01.299Z,14.24
2022-09-26T10:18:23.639Z,14.29
2022-09-26T10:19:03.564Z,14.36
2022-09-26T10:20:01.229Z,14.45
2022-09-26T10:21:01.237Z,14.46
2022-09-26T10:22:01.261Z,14.55
2022-09-26T10:23:01.192Z,14.60
2022-09-26T10:24:01.188Z,14.47
2022-09-26T10:25:01.184Z,14.46
2022-09-26T10:26:01.172Z,14.45
2022-09-26T10:27:01.177Z,14.32
2022-09-26T10:28:01.187Z,14.33
2022-09-26T10:29:01.128Z,14.43
2022-09-26T10:30:01.119Z,14.39
2022-09-26T10:31:01.237Z,14.36
2022-09-26T10:32:01.107Z,14.36
2022-09-26T10:33:01.102Z,14.45
2022-09-26T10:34:01.119Z,14.33
2022-09-26T10:35:01.057Z,14.39
2022-09-26T10:36:01.057Z,14.45
2022-09-26T10:37:01.042Z,14.47
2022-09-26T10:38:01.044Z,14.50
2022-09-26T10:39:01.044Z,14.47
2022-09-26T10:40:01.028Z,14.51
2022-09-26T10:41:01.075Z,14.58
2022-09-26T10:42:01.001Z,14.57
2022-09-26T10:43:00.983Z,14.57
2022-09-26T10:44:00.982Z,14.46
2022-09-26T10:45:00.945Z,14.45
2022-09-26T10:46:00.982Z,14.40
2022-09-26T10:47:00.955Z,14.32
2022-09-26T10:48:00.915Z,14.33
2022-09-26T10:49:00.914Z,14.29
2022-09-26T10:50:01.119Z,14.20
2022-09-26T10:51:00.923Z,14.18
2022-09-26T10:52:01.483Z,14.18
2022-09-26T10:53:00.871Z,14.06
2022-09-26T10:54:00.870Z,14.12
2022-09-26T10:55:00.851Z,14.04
2022-09-26T10:56:00.854Z,14.15
2022-09-26T10:57:00.819Z,14.07
2022-09-26T10:58:00.800Z,14.03
2022-09-26T10:59:00.805Z,14.10
2022-09-26T11:00:00.792Z,14.14
2022-09-26T11:01:00.765Z,14.18
2022-09-26T11:02:00.872Z,14.17
2022-09-26T11:03:00.741Z,14.10
2022-09-26T11:04:00.861Z,14.20
2022-09-26T11:05:00.724Z,14.24
2022-09-26T11:06:00.722Z,14.28
2022-09-26T11:07:00.724Z,14.32
2022-09-26T11:08:00.701Z,14.40
2022-09-26T11:09:00.674Z,14.39
2022-09-26T11:10:00.709Z,14.37
2022-09-26T11:11:00.684Z,14.39
2022-09-26T11:12:00.655Z,14.51
2022-09-26T11:13:00.670Z,14.43
2022-09-26T11:14:00.625Z,14.51
2022-09-26T11:15:00.612Z,14.50
2022-09-26T11:16:00.672Z,14.46
2022-09-26T11:17:00.605Z,14.47
2022-09-26T11:18:00.576Z,14.57
2022-09-26T11:19:00.580Z,14.54
2022-09-26T11:20:00.563Z,14.54
2022-09-26T11:21:00.549Z,14.50
2022-09-26T11:22:05.792Z,14.54
2022-09-26T11:23:01.532Z,14.50
2022-09-26T11:24:00.514Z,14.46
2022-09-26T11:25:00.492Z,14.60
2022-09-26T11:26:00.503Z,14.55
2022-09-26T11:27:00.472Z,14.60
2022-09-26T11:28:00.479Z,14.58
2022-09-26T11:29:00.478Z,14.52
2022-09-26T11:30:00.482Z,14.47
2022-09-26T11:31:00.554Z,14.62
2022-09-26T11:32:00.617Z,14.68
2022-09-26T11:33:00.414Z,14.72
2022-09-26T11:34:00.415Z,14.65
2022-09-26T11:35:00.428Z,14.78
2022-09-26T11:36:00.370Z,14.73
2022-09-26T11:37:00.356Z,14.81
2022-09-26T11:38:00.379Z,14.84
2022-09-26T11:39:00.349Z,14.96
2022-09-26T11:40:00.365Z,15.02
2022-09-26T11:41:00.386Z,15.14
2022-09-26T11:42:00.327Z,15.19
2022-09-26T11:43:00.315Z,15.27
2022-09-26T11:44:00.279Z,15.16
2022-09-26T11:45:00.293Z,15.20
2022-09-26T11:46:00.331Z,15.13
2022-09-26T11:47:00.252Z,15.14
2022-09-26T11:48:00.262Z,15.27
2022-09-26T11:49:00.223Z,15.16
2022-09-26T11:50:00.244Z,15.13
2022-09-26T11:51:00.225Z,15.13
2022-09-26T11:52:00.197Z,15.17
2022-09-26T11:53:00.187Z,15.13
2022-09-26T11:54:00.167Z,15.20
2022-09-26T11:55:00.187Z,15.17
2022-09-26T11:56:00.161Z,15.10
2022-09-26T11:57:00.208Z,15.06
2022-09-26T11:58:03.451Z,15.02
2022-09-26T11:59:00.115Z,15.11
2022-09-26T12:00:00.123Z,15.13
2022-09-26T12:01:00.103Z,15.21
2022-09-26T12:02:00.101Z,15.17
2022-09-26T12:03:00.152Z,15.27
2022-09-26T12:04:00.178Z,15.25
2022-09-26T12:05:00.048Z,15.19
2022-09-26T12:06:00.177Z,15.10
2022-09-26T12:07:07.759Z,15.13
2022-09-26T12:08:00.035Z,15.14
2022-09-26T12:09:00.029Z,15.20
2022-09-26T12:09:59.986Z,15.09
2022-09-26T12:11:00.021Z,15.13
2022-09-26T12:11:59.972Z,15.23
2022-09-26T12:12:59.968Z,15.28
2022-09-26T12:13:59.958Z,15.36
2022-09-26T12:14:59.948Z,15.41
2022-09-26T12:16:00.077Z,15.41
2022-09-26T12:16:59.912Z,15.36
2022-09-26T12:17:59.912Z,15.38
2022-09-26T12:18:59.929Z,15.39
2022-09-26T12:20:00.722Z,15.54
2022-09-26T12:20:59.885Z,15.54
2022-09-26T12:21:59.892Z,15.56
2022-09-26T12:22:59.840Z,15.49
2022-09-26T12:23:59.851Z,15.44
2022-09-26T12:24:59.852Z,15.39
2022-09-26T12:25:59.808Z,15.35
2022-09-26T12:26:59.795Z,15.38
2022-09-26T12:27:59.792Z,15.28
2022-09-26T12:28:59.775Z,15.17
2022-09-26T12:29:59.830Z,15.11
2022-09-26T12:30:59.826Z,15.11
2022-09-26T12:31:59.755Z,15.09
2022-09-26T12:32:59.728Z,14.91
2022-09-26T12:33:59.731Z,14.84
2022-09-26T12:34:59.732Z,14.88
2022-09-26T12:35:59.708Z,14.70
2022-09-26T12:36:59.725Z,14.68
2022-09-26T12:37:59.691Z,14.61
2022-09-26T12:38:59.663Z,14.52
2022-09-26T12:39:59.654Z,14.52
2022-09-26T12:40:59.763Z,14.40
2022-09-26T12:41:59.625Z,14.36
2022-09-26T12:42:59.628Z,14.29
2022-09-26T12:43:59.601Z,14.27
2022-09-26T12:44:59.634Z,14.24
2022-09-26T12:45:59.670Z,14.29
2022-09-26T12:46:59.677Z,14.28
2022-09-26T12:47:59.560Z,14.40
2022-09-26T12:48:59.569Z,14.33
2022-09-26T12:49:59.533Z,14.29
2022-09-26T12:50:59.524Z,14.43
2022-09-26T12:51:59.528Z,14.28
2022-09-26T12:52:59.533Z,14.21
2022-09-26T12:53:59.527Z,14.15
2022-09-26T12:54:59.498Z,14.09